Time;durP1;ratioP1;P1;durP2;ratioP2;P2;SDS_P1;SDS_P2;PMS_P1;PMS_P2;Temp;Humidity;BMP_temperature;BMP_pressure;BME280_temperature;BME280_humidity;BME280_pressure;Samples;Min_cycle;Max_cycle;Signal;HPM_P1;HPM_P2
2023/11/19 00:01:47;;;;;;;;;;;;;;;15.40;45.02;99601.63;5115986;28;1019;-43
2023/11/19 00:04:13;;;;;;;;;;;;;;;15.51;45.84;99604.22;5111253;28;998;-49
2023/11/19 00:06:39;;;;;;;;;;;;;;;16.25;47.00;99633.88;5096244;28;1106;-46
2023/11/19 00:09:04;;;;;;;;;;;;;;;15.70;46.98;99632.44;5101280;28;1043;-48
2023/11/19 00:11:30;;;;;;;;;;;;;;;15.51;46.40;99626.94;5115814;28;1933;-46
2023/11/19 00:13:55;;;;;;;;;;;;;;;15.45;45.53;99641.03;5101302;28;1089;-46
2023/11/19 00:16:21;;;;;;;;;;;;;;;15.36;44.88;99649.06;5115702;28;1964;-47
2023/11/19 00:18:46;;;;;;;;;;;;;;;15.39;44.81;99668.47;5110806;28;1035;-42
2023/11/19 00:21:12;;;;;;;;;;;;;;;16.13;46.97;99677.38;5105506;28;1057;-46
2023/11/19 00:23:37;;;;;;;;;;;;;;;15.56;47.06;99683.63;5119164;28;1018;-48
2023/11/19 00:26:05;;;;;;;;;;;;;;;16.68;47.13;99687.78;5108147;28;1137;-45
2023/11/19 00:28:32;;;;;;;;;;;;;;;16.32;47.51;99693.84;5117779;28;1185;-45
2023/11/19 00:30:58;;;;;;;;;;;;;;;15.89;46.88;99708.44;5089020;28;1178;-45
2023/11/19 00:33:24;;;;;;;;;;;;;;;15.70;46.11;99692.75;5100373;28;1030;-46
2023/11/19 00:35:50;;;;;;;;;;;;;;;15.58;45.45;99717.00;5092804;28;1910;-48
2023/11/19 00:38:15;;;;;;;;;;;;;;;16.07;47.22;99706.81;5082012;28;1129;-42
2023/11/19 00:40:41;;;;;;;;;;;;;;;16.06;47.62;99732.59;5111327;28;1062;-44
2023/11/19 00:43:07;;;;;;;;;;;;;;;15.68;47.05;99736.09;5100682;28;1871;-45
2023/11/19 00:45:32;;;;;;;;;;;;;;;15.62;45.88;99753.69;5083703;28;1010;-45
2023/11/19 00:47:59;;;;;;;;;;;;;;;16.15;46.92;99762.94;5112173;28;1078;-47
2023/11/19 00:50:25;;;;;;;;;;;;;;;15.86;47.36;99774.81;5110217;28;1108;-45
2023/11/19 00:52:51;;;;;;;;;;;;;;;15.70;46.06;99772.22;5100560;28;991;-46
2023/11/19 00:55:17;;;;;;;;;;;;;;;15.59;45.62;99772.66;5109769;28;1870;-45
2023/11/19 00:57:43;;;;;;;;;;;;;;;15.40;45.27;99779.69;5114247;28;1092;-44
2023/11/19 01:00:24;;;;;;;;;;;;;;;16.29;47.02;99783.03;5089302;28;1201;-46
2023/11/19 01:02:50;;;;;;;;;;;;;;;16.02;46.94;99800.94;5086508;28;1110;-45
2023/11/19 01:05:15;;;;;;;;;;;;;;;15.65;46.74;99812.59;5105450;28;1053;-47
2023/11/19 01:07:41;;;;;;;;;;;;;;;15.52;45.83;99794.91;5098741;28;1055;-47
2023/11/19 01:10:08;;;;;;;;;;;;;;;15.43;45.02;99818.56;5100151;28;1031;-48
2023/11/19 01:12:33;;;;;;;;;;;;;;;15.41;45.09;99824.31;5097998;28;2344;-46
2023/11/19 01:14:59;;;;;;;;;;;;;;;16.23;47.12;99833.59;5097750;28;1177;-43
2023/11/19 01:17:24;;;;;;;;;;;;;;;15.74;46.74;99833.56;5098131;28;1993;-48
2023/11/19 01:19:50;;;;;;;;;;;;;;;15.46;46.10;99815.22;5100541;28;953;-48
2023/11/19 01:22:15;;;;;;;;;;;;;;;16.25;47.12;99837.66;5112929;28;1099;-48
2023/11/19 01:24:41;;;;;;;;;;;;;;;15.72;46.91;99835.81;5118255;28;1057;-46
2023/11/19 01:27:06;;;;;;;;;;;;;;;15.44;46.36;99831.97;5093396;28;1090;-43
2023/11/19 01:29:33;;;;;;;;;;;;;;;15.72;46.74;99844.03;5097875;28;1066;-44
2023/11/19 01:31:59;;;;;;;;;;;;;;;15.83;47.28;99846.69;5085763;28;1163;-47
2023/11/19 01:34:25;;;;;;;;;;;;;;;15.90;47.28;99855.38;5106171;28;1072;-49
2023/11/19 01:36:50;;;;;;;;;;;;;;;16.84;46.79;99844.81;5097888;28;1995;-42
2023/11/19 01:39:16;;;;;;;;;;;;;;;16.10;47.52;99840.59;5097857;28;1014;-48
2023/11/19 01:41:41;;;;;;;;;;;;;;;15.86;46.74;99851.56;5097497;28;2355;-45
2023/11/19 01:44:07;;;;;;;;;;;;;;;15.67;45.77;99848.72;5097567;28;1027;-45
2023/11/19 01:46:33;;;;;;;;;;;;;;;15.90;47.00;99841.66;5104829;28;1276;-45
2023/11/19 01:48:58;;;;;;;;;;;;;;;16.03;47.59;99862.06;5079019;28;1134;-44
2023/11/19 01:51:24;;;;;;;;;;;;;;;15.75;46.81;99856.31;5099262;28;1227;-45
2023/11/19 01:53:50;;;;;;;;;;;;;;;15.62;45.62;99849.59;5117591;28;1089;-45
2023/11/19 01:56:16;;;;;;;;;;;;;;;15.53;45.00;99849.41;5085460;28;1985;-48
2023/11/19 01:58:42;;;;;;;;;;;;;;;15.31;45.03;99860.03;5086066;28;1142;-45
2023/11/19 02:01:07;;;;;;;;;;;;;;;15.66;45.90;99871.78;5079540;28;1122;-47
2023/11/19 02:03:33;;;;;;;;;;;;;;;16.03;47.47;99873.03;5085996;28;1154;-44
2023/11/19 02:06:01;;;;;;;;;;;;;;;15.68;46.78;99878.59;5109125;28;1221;-45
2023/11/19 02:08:27;;;;;;;;;;;;;;;15.52;45.93;99880.66;5093089;28;1142;-46
2023/11/19 02:10:54;;;;;;;;;;;;;;;16.22;47.25;99904.09;5110009;28;950;-47
2023/11/19 02:13:20;;;;;;;;;;;;;;;16.05;47.38;99904.56;5099408;28;1642;-45
2023/11/19 02:15:46;;;;;;;;;;;;;;;15.69;46.85;99874.72;5089422;28;1914;-44
2023/11/19 02:18:21;;;;;;;;;;;;;;;15.57;46.04;99890.75;5111296;28;1169;-48
2023/11/19 02:20:47;;;;;;;;;;;;;;;16.05;47.06;99893.59;5090423;28;1102;-45
2023/11/19 02:23:13;;;;;;;;;;;;;;;16.00;47.49;99890.88;5081100;28;1341;-45
2023/11/19 02:25:39;;;;;;;;;;;;;;;15.69;46.58;99893.91;5090527;28;1419;-45
2023/11/19 02:28:05;;;;;;;;;;;;;;;15.50;46.12;99890.25;5098998;28;1041;-43
2023/11/19 02:30:31;;;;;;;;;;;;;;;16.05;47.18;99931.16;5097188;28;1165;-44
2023/11/19 02:32:58;;;;;;;;;;;;;;;16.20;47.54;99906.31;5115537;28;1158;-47
2023/11/19 02:35:24;;;;;;;;;;;;;;;15.72;47.11;99918.03;5084701;28;1976;-45
2023/11/19 02:37:50;;;;;;;;;;;;;;;15.67;45.93;99925.47;5113367;28;1111;-43
2023/11/19 02:40:15;;;;;;;;;;;;;;;15.43;45.61;99928.13;5117047;28;1014;-45
2023/11/19 02:42:41;;;;;;;;;;;;;;;16.66;47.00;99940.59;5102462;28;1158;-47
2023/11/19 02:45:07;;;;;;;;;;;;;;;16.13;47.77;99924.22;5096814;28;1114;-46
2023/11/19 02:47:33;;;;;;;;;;;;;;;15.74;47.24;99904.03;5098561;28;872;-46
2023/11/19 02:49:59;;;;;;;;;;;;;;;15.58;46.06;99933.50;5105053;28;1150;-43
2023/11/19 02:52:25;;;;;;;;;;;;;;;15.47;45.72;99943.72;5102988;28;1089;-44
2023/11/19 02:54:51;;;;;;;;;;;;;;;15.55;45.30;99972.44;5117310;28;1151;-47
2023/11/19 02:57:19;;;;;;;;;;;;;;;15.91;47.42;99947.47;5117057;28;1971;-48
2023/11/19 02:59:44;;;;;;;;;;;;;;;15.55;46.65;99966.94;5107860;28;865;-44
2023/11/19 03:02:15;;;;;;;;;;;;;;;15.60;46.70;99968.81;5096630;28;1139;-45
2023/11/19 03:04:43;;;;;;;;;;;;;;;16.05;47.39;99958.59;5087721;28;1291;-45
2023/11/19 03:07:08;;;;;;;;;;;;;;;15.64;46.89;99981.69;5100319;28;1205;-45
2023/11/19 03:09:35;;;;;;;;;;;;;;;15.50;46.13;99983.41;5105571;28;1062;-47
2023/11/19 03:12:01;;;;;;;;;;;;;;;15.35;45.57;99995.31;5110754;28;955;-46
2023/11/19 03:14:27;;;;;;;;;;;;;;;16.22;47.17;99980.06;5088033;28;1668;-47
2023/11/19 03:16:53;;;;;;;;;;;;;;;15.73;47.16;99996.38;5098313;28;1968;-46
2023/11/19 03:19:18;;;;;;;;;;;;;;;15.58;46.61;100004.75;5098638;28;1111;-44
2023/11/19 03:21:44;;;;;;;;;;;;;;;16.47;47.39;100011.91;5113596;28;1029;-47
2023/11/19 03:24:10;;;;;;;;;;;;;;;15.77;47.63;100002.13;5116047;28;897;-48
2023/11/19 03:26:37;;;;;;;;;;;;;;;15.67;46.25;100021.38;5102845;28;1129;-44
2023/11/19 03:29:02;;;;;;;;;;;;;;;15.42;45.79;100031.44;5098797;28;1157;-47
2023/11/19 03:31:28;;;;;;;;;;;;;;;15.55;45.82;100029.97;5116581;28;1090;-47
2023/11/19 03:33:54;;;;;;;;;;;;;;;16.64;47.15;100032.59;5116950;28;1066;-43
2023/11/19 03:36:20;;;;;;;;;;;;;;;15.91;47.35;100027.00;5091256;28;1910;-44
2023/11/19 03:38:46;;;;;;;;;;;;;;;15.68;46.52;100037.56;5106764;28;1062;-42
2023/11/19 03:41:12;;;;;;;;;;;;;;;15.51;45.75;100020.69;5116822;28;1264;-46
2023/11/19 03:43:38;;;;;;;;;;;;;;;15.49;45.21;100011.94;5107681;28;1124;-43
2023/11/19 03:46:05;;;;;;;;;;;;;;;15.60;46.34;100040.91;5098112;28;1148;-47
2023/11/19 03:48:30;;;;;;;;;;;;;;;16.37;47.58;100034.78;5105165;28;1165;-44
2023/11/19 03:50:56;;;;;;;;;;;;;;;15.82;47.38;100017.75;5102686;28;1114;-44
2023/11/19 03:53:22;;;;;;;;;;;;;;;15.55;46.70;99995.16;5088815;28;1245;-47
2023/11/19 03:55:47;;;;;;;;;;;;;;;15.40;46.05;100028.16;5101544;28;1910;-43
2023/11/19 03:58:13;;;;;;;;;;;;;;;15.35;45.26;100018.03;5100686;28;1034;-46
2023/11/19 04:00:38;;;;;;;;;;;;;;;15.20;44.90;100013.47;5083042;28;1157;-48
2023/11/19 04:03:04;;;;;;;;;;;;;;;16.34;47.41;100018.06;5109270;28;1201;-45
2023/11/19 04:05:30;;;;;;;;;;;;;;;15.80;47.86;100017.22;5114059;28;1121;-43
2023/11/19 04:07:56;;;;;;;;;;;;;;;15.64;46.89;100036.50;5100146;28;1073;-46
2023/11/19 04:10:22;;;;;;;;;;;;;;;16.23;47.71;100026.41;5100882;28;1034;-44
2023/11/19 04:12:47;;;;;;;;;;;;;;;15.74;47.58;100008.19;5120229;28;1132;-46
2023/11/19 04:15:13;;;;;;;;;;;;;;;15.56;46.49;100010.50;5115635;28;1058;-48
2023/11/19 04:17:39;;;;;;;;;;;;;;;15.54;45.74;100033.81;5084725;28;2570;-44
2023/11/19 04:20:05;;;;;;;;;;;;;;;16.30;47.37;100034.31;5116690;28;1177;-47
2023/11/19 04:22:31;;;;;;;;;;;;;;;15.71;47.52;100031.50;5110277;28;1137;-44
2023/11/19 04:24:56;;;;;;;;;;;;;;;15.45;46.94;100033.59;5119034;28;1030;-48
2023/11/19 04:27:22;;;;;;;;;;;;;;;15.34;46.13;100048.47;5100599;28;1495;-44
2023/11/19 04:29:48;;;;;;;;;;;;;;;16.22;47.38;100054.16;5083632;28;1568;-47
2023/11/19 04:32:14;;;;;;;;;;;;;;;16.19;47.94;100030.84;5091522;28;1119;-48
2023/11/19 04:34:40;;;;;;;;;;;;;;;15.85;47.64;100050.06;5102883;28;1021;-45
2023/11/19 04:37:05;;;;;;;;;;;;;;;16.98;47.62;100059.94;5098856;28;1901;-46
2023/11/19 04:39:31;;;;;;;;;;;;;;;16.18;48.01;100055.81;5112252;28;1085;-47
2023/11/19 04:41:57;;;;;;;;;;;;;;;15.88;47.31;100068.69;5098774;28;1372;-45
2023/11/19 04:44:22;;;;;;;;;;;;;;;15.72;46.24;100038.63;5113957;28;1074;-44
2023/11/19 04:46:48;;;;;;;;;;;;;;;15.60;45.77;100062.00;5113125;28;1133;-47
2023/11/19 04:49:18;;;;;;;;;;;;;;;16.55;48.19;100055.19;5118742;28;2596;-45
2023/11/19 04:51:44;;;;;;;;;;;;;;;16.05;48.12;100044.41;5118631;28;1073;-50
2023/11/19 04:54:09;;;;;;;;;;;;;;;15.80;47.21;100066.56;5102697;28;1320;-50
2023/11/19 04:56:37;;;;;;;;;;;;;;;15.70;46.09;100061.94;5098146;28;2294;-51
2023/11/19 04:59:02;;;;;;;;;;;;;;;16.32;47.83;100034.03;5100334;28;1011;-52
2023/11/19 05:01:28;;;;;;;;;;;;;;;15.98;47.83;100065.88;5098489;28;1106;-53
2023/11/19 05:03:53;;;;;;;;;;;;;;;15.73;46.61;100050.41;5118427;28;1062;-47
2023/11/19 05:06:19;;;;;;;;;;;;;;;15.55;46.03;100062.84;5104592;28;1295;-49
2023/11/19 05:08:45;;;;;;;;;;;;;;;15.38;45.42;100080.47;5118353;28;1065;-50
2023/11/19 05:11:12;;;;;;;;;;;;;;;16.39;47.28;100072.91;5113735;28;1113;-46
2023/11/19 05:13:37;;;;;;;;;;;;;;;15.84;47.20;100075.84;5098835;28;1058;-48
2023/11/19 05:16:03;;;;;;;;;;;;;;;15.78;47.12;100091.50;5118169;28;1968;-49
2023/11/19 05:18:29;;;;;;;;;;;;;;;16.17;47.61;100081.59;5104789;28;1817;-48
2023/11/19 05:20:54;;;;;;;;;;;;;;;15.66;47.08;100052.66;5110052;28;1121;-51
2023/11/19 05:23:20;;;;;;;;;;;;;;;15.50;46.28;100080.16;5102247;28;1136;-48
2023/11/19 05:25:45;;;;;;;;;;;;;;;15.51;45.18;100078.22;5110249;28;1169;-49
2023/11/19 05:28:11;;;;;;;;;;;;;;;16.19;47.26;100090.38;5097537;28;1097;-48
2023/11/19 05:30:36;;;;;;;;;;;;;;;15.76;47.79;100109.31;5105404;28;1089;-46
2023/11/19 05:33:02;;;;;;;;;;;;;;;15.71;48.42;100113.72;5103657;28;1122;-51
2023/11/19 05:35:28;;;;;;;;;;;;;;;16.89;45.58;100087.22;5099710;28;1967;-47
2023/11/19 05:37:53;;;;;;;;;;;;;;;17.48;43.80;100072.47;5098587;28;1108;-49
2023/11/19 05:40:20;;;;;;;;;;;;;;;16.47;46.18;100107.97;5110168;28;1106;-48
2023/11/19 05:42:45;;;;;;;;;;;;;;;17.12;44.70;100117.72;5099515;28;1055;-48
2023/11/19 05:45:12;;;;;;;;;;;;;;;17.59;43.52;100132.50;5109390;28;1118;-45
2023/11/19 05:47:38;;;;;;;;;;;;;;;16.64;45.84;100150.63;5106574;28;2339;-53
2023/11/19 05:50:05;;;;;;;;;;;;;;;17.22;44.77;100152.50;5106089;28;1030;-50
2023/11/19 05:52:33;;;;;;;;;;;;;;;17.15;44.39;100155.59;5117131;28;1037;-50
2023/11/19 05:55:09;;;;;;;;;;;;;;;16.55;45.94;100164.13;5117578;28;1064;-47
2023/11/19 05:57:34;;;;;;;;;;;;;;;16.18;47.02;100171.03;5103891;28;1905;-49
2023/11/19 06:00:00;;;;;;;;;;;;;;;17.39;44.12;100157.50;5109069;28;1018;-48
2023/11/19 06:02:27;;;;;;;;;;;;;;;16.77;45.42;100164.50;5113545;28;1050;-48
2023/11/19 06:04:53;;;;;;;;;;;;;;;16.31;46.64;100158.59;5106899;28;966;-50
2023/11/19 06:07:18;;;;;;;;;;;;;;;17.56;43.97;100198.28;5099808;28;1093;-50
2023/11/19 06:09:44;;;;;;;;;;;;;;;16.97;44.93;100183.81;5107395;28;1141;-48
2023/11/19 06:12:09;;;;;;;;;;;;;;;16.39;46.31;100191.69;5108113;28;1026;-52
2023/11/19 06:14:35;;;;;;;;;;;;;;;16.08;46.94;100191.94;5107679;28;1057;-50
2023/11/19 06:17:00;;;;;;;;;;;;;;;16.88;45.38;100189.09;5098866;28;1902;-43
2023/11/19 06:19:26;;;;;;;;;;;;;;;17.21;44.40;100187.41;5098825;28;2603;-43
2023/11/19 06:21:51;;;;;;;;;;;;;;;16.47;46.11;100162.03;5113149;28;1066;-47
2023/11/19 06:24:17;;;;;;;;;;;;;;;16.13;46.97;100149.94;5116237;28;985;-50
2023/11/19 06:26:43;;;;;;;;;;;;;;;16.94;45.35;100168.72;5117113;28;1085;-47
2023/11/19 06:29:08;;;;;;;;;;;;;;;17.17;44.74;100180.84;5116951;28;1058;-50
2023/11/19 06:31:34;;;;;;;;;;;;;;;16.49;46.25;100157.06;5101185;28;1141;-48
2023/11/19 06:33:59;;;;;;;;;;;;;;;16.38;46.67;100181.84;5097130;28;1058;-48
2023/11/19 06:36:25;;;;;;;;;;;;;;;17.67;43.69;100176.94;5105019;28;1894;-45
2023/11/19 06:38:50;;;;;;;;;;;;;;;16.93;45.13;100183.59;5107876;28;1117;-47
2023/11/19 06:41:16;;;;;;;;;;;;;;;16.44;46.44;100196.34;5109933;28;1157;-46
2023/11/19 06:43:41;;;;;;;;;;;;;;;16.21;46.88;100184.97;5105784;28;1217;-51
2023/11/19 06:46:14;;;;;;;;;;;;;;;17.44;44.03;100201.41;5102844;28;1108;-45
2023/11/19 06:48:40;;;;;;;;;;;;;;;17.06;44.75;100196.63;5104763;28;2675;-45
2023/11/19 06:51:05;;;;;;;;;;;;;;;16.51;46.09;100198.75;5109891;28;1225;-49
2023/11/19 06:53:31;;;;;;;;;;;;;;;16.24;46.82;100200.06;5106857;28;1066;-48
2023/11/19 06:55:56;;;;;;;;;;;;;;;17.33;44.41;100208.97;5112398;28;1906;-46
2023/11/19 06:58:22;;;;;;;;;;;;;;;17.06;44.71;100207.59;5107125;28;1094;-49
2023/11/19 07:00:49;;;;;;;;;;;;;;;16.49;46.07;100199.03;5108826;28;1037;-49
2023/11/19 07:03:15;;;;;;;;;;;;;;;17.53;43.67;100210.66;5105992;28;1173;-43
2023/11/19 07:05:41;;;;;;;;;;;;;;;17.02;44.75;100231.28;5109646;28;1082;-48
2023/11/19 07:08:09;;;;;;;;;;;;;;;16.51;46.24;100228.94;5106918;28;1015;-44
2023/11/19 07:10:35;;;;;;;;;;;;;;;16.28;46.77;100247.75;5116459;28;1127;-46
2023/11/19 07:13:01;;;;;;;;;;;;;;;17.41;44.00;100252.28;5103771;28;906;-48
2023/11/19 07:15:26;;;;;;;;;;;;;;;16.82;45.14;100265.22;5096214;28;1143;-49
2023/11/19 07:17:54;;;;;;;;;;;;;;;16.41;46.26;100269.09;5096206;28;2475;-48
2023/11/19 07:20:19;;;;;;;;;;;;;;;17.39;44.10;100267.44;5100778;28;1496;-49
2023/11/19 07:22:45;;;;;;;;;;;;;;;16.62;45.84;100268.94;5116382;28;1049;-47
2023/11/19 07:25:12;;;;;;;;;;;;;;;16.29;46.60;100298.78;5107863;28;1140;-48
2023/11/19 07:27:38;;;;;;;;;;;;;;;17.52;43.77;100293.44;5115550;28;1010;-45
2023/11/19 07:30:04;;;;;;;;;;;;;;;17.25;44.05;100303.03;5101607;28;1076;-47
2023/11/19 07:32:30;;;;;;;;;;;;;;;16.62;45.72;100282.69;5111566;28;1106;-44
2023/11/19 07:34:56;;;;;;;;;;;;;;;16.29;46.34;100298.78;5106766;28;1140;-46
2023/11/19 07:37:22;;;;;;;;;;;;;;;16.71;45.48;100291.13;5118277;28;1974;-48
2023/11/19 07:39:47;;;;;;;;;;;;;;;17.79;42.94;100271.66;5101642;28;1081;-44
2023/11/19 07:42:13;;;;;;;;;;;;;;;16.88;44.90;100272.31;5111571;28;1189;-48
2023/11/19 07:44:39;;;;;;;;;;;;;;;16.48;45.77;100298.13;5102477;28;998;-46
2023/11/19 07:47:04;;;;;;;;;;;;;;;17.36;43.84;100271.59;5100276;28;1089;-47
2023/11/19 07:49:30;;;;;;;;;;;;;;;17.23;44.05;100288.75;5103324;28;2505;-44
2023/11/19 07:51:56;;;;;;;;;;;;;;;16.62;45.56;100276.34;5111087;28;1106;-46
2023/11/19 07:54:21;;;;;;;;;;;;;;;16.33;46.41;100293.56;5115606;28;1156;-46
2023/11/19 07:56:47;;;;;;;;;;;;;;;17.53;43.69;100286.81;5110436;28;1898;-47
2023/11/19 07:59:12;;;;;;;;;;;;;;;16.89;44.88;100284.94;5101850;28;1042;-47
2023/11/19 08:01:38;;;;;;;;;;;;;;;16.46;45.98;100287.44;5102713;28;843;-47
2023/11/19 08:04:04;;;;;;;;;;;;;;;16.47;46.13;100282.78;5099129;28;1203;-45
2023/11/19 08:06:29;;;;;;;;;;;;;;;17.38;43.66;100291.34;5110541;28;1083;-46
2023/11/19 08:08:55;;;;;;;;;;;;;;;16.61;45.42;100278.28;5087854;28;1125;-45
2023/11/19 08:11:20;;;;;;;;;;;;;;;16.23;46.15;100299.94;5108912;28;1038;-50
2023/11/19 08:13:46;;;;;;;;;;;;;;;17.04;44.54;100295.00;5109627;28;982;-47
2023/11/19 08:16:11;;;;;;;;;;;;;;;17.13;44.29;100313.59;5110208;28;1968;-49
2023/11/19 08:18:37;;;;;;;;;;;;;;;16.48;45.63;100289.88;5119380;28;2469;-43
2023/11/19 08:21:04;;;;;;;;;;;;;;;16.21;46.30;100307.63;5108686;28;893;-42
2023/11/19 08:23:30;;;;;;;;;;;;;;;17.31;43.84;100296.38;5112931;28;1550;-43
2023/11/19 08:25:55;;;;;;;;;;;;;;;16.96;44.25;100301.09;5114741;28;900;-48
2023/11/19 08:28:21;;;;;;;;;;;;;;;16.46;45.74;100298.41;5119111;28;1034;-46
2023/11/19 08:30:46;;;;;;;;;;;;;;;17.32;43.83;100298.03;5120422;27;1353;-43
2023/11/19 08:33:12;;;;;;;;;;;;;;;17.00;44.51;100285.69;5118738;28;1050;-46
2023/11/19 08:35:37;;;;;;;;;;;;;;;16.43;45.80;100294.31;5106959;28;1975;-43
2023/11/19 08:38:03;;;;;;;;;;;;;;;16.73;45.06;100300.72;5112504;28;1169;-45
2023/11/19 08:40:29;;;;;;;;;;;;;;;17.43;43.48;100288.56;5097778;28;1034;-47
2023/11/19 08:42:55;;;;;;;;;;;;;;;16.66;45.15;100296.63;5106445;28;1027;-50
2023/11/19 08:45:21;;;;;;;;;;;;;;;17.15;44.26;100308.63;5108185;28;1069;-47
2023/11/19 08:47:46;;;;;;;;;;;;;;;16.99;44.25;100295.03;5105022;28;2488;-47
2023/11/19 08:50:12;;;;;;;;;;;;;;;16.46;45.77;100297.59;5102805;28;859;-47
2023/11/19 08:52:37;;;;;;;;;;;;;;;16.17;46.20;100301.88;5098759;28;1081;-45
2023/11/19 08:55:05;;;;;;;;;;;;;;;17.36;43.54;100281.75;5105677;28;1175;-46
2023/11/19 08:57:30;;;;;;;;;;;;;;;17.06;44.15;100273.53;5089228;28;1918;-43
2023/11/19 08:59:56;;;;;;;;;;;;;;;16.48;45.73;100277.00;5103095;28;1168;-45
2023/11/19 09:02:21;;;;;;;;;;;;;;;16.60;45.42;100284.88;5114457;28;844;-48
2023/11/19 09:04:47;;;;;;;;;;;;;;;17.87;42.61;100263.88;5116285;28;990;-47
2023/11/19 09:07:13;;;;;;;;;;;;;;;17.01;44.36;100265.34;5106910;28;1027;-46
2023/11/19 09:09:38;;;;;;;;;;;;;;;16.58;45.17;100270.63;5103293;28;1113;-47
2023/11/19 09:12:04;;;;;;;;;;;;;;;16.33;46.02;100266.94;5107941;28;1059;-49
2023/11/19 09:14:30;;;;;;;;;;;;;;;16.20;46.17;100275.78;5103256;28;956;-50
2023/11/19 09:16:56;;;;;;;;;;;;;;;17.52;43.16;100274.19;5118051;28;1909;-45
2023/11/19 09:19:21;;;;;;;;;;;;;;;16.95;44.37;100257.44;5115304;28;2644;-44
2023/11/19 09:21:47;;;;;;;;;;;;;;;16.47;45.52;100260.81;5118125;28;1050;-44
2023/11/19 09:24:13;;;;;;;;;;;;;;;17.31;43.79;100241.44;5104543;28;1244;-46
2023/11/19 09:26:41;;;;;;;;;;;;;;;17.13;44.05;100233.94;5109232;28;934;-48
2023/11/19 09:29:09;;;;;;;;;;;;;;;16.52;45.28;100236.06;5115854;28;1150;-44
2023/11/19 09:31:35;;;;;;;;;;;;;;;17.20;43.88;100248.13;5098312;28;1041;-45
2023/11/19 09:34:00;;;;;;;;;;;;;;;17.17;43.83;100245.97;5113264;28;1099;-48
2023/11/19 09:36:26;;;;;;;;;;;;;;;16.59;45.31;100253.88;5109155;28;1983;-45
2023/11/19 09:38:51;;;;;;;;;;;;;;;16.30;45.78;100239.25;5099535;28;899;-42
2023/11/19 09:41:19;;;;;;;;;;;;;;;17.17;43.92;100244.03;5106544;28;1023;-46
2023/11/19 09:43:45;;;;;;;;;;;;;;;16.98;44.29;100254.94;5089874;28;1077;-44
2023/11/19 09:46:11;;;;;;;;;;;;;;;16.49;45.29;100264.09;5101076;28;1165;-43
2023/11/19 09:48:37;;;;;;;;;;;;;;;16.61;45.35;100253.56;5105930;28;2474;-44
2023/11/19 09:51:02;;;;;;;;;;;;;;;17.82;42.29;100261.97;5109252;28;936;-45
2023/11/19 09:53:28;;;;;;;;;;;;;;;16.91;44.37;100265.44;5110066;28;1110;-46
2023/11/19 09:55:54;;;;;;;;;;;;;;;16.49;45.43;100277.81;5076228;28;1910;-46
2023/11/19 09:58:19;;;;;;;;;;;;;;;17.00;44.34;100285.69;5089899;28;1053;-45
2023/11/19 10:00:45;;;;;;;;;;;;;;;17.23;43.56;100294.25;5097149;28;1140;-49
2023/11/19 10:03:12;;;;;;;;;;;;;;;16.54;45.12;100308.78;5090023;28;841;-46
2023/11/19 10:05:38;;;;;;;;;;;;;;;16.25;45.72;100287.56;5091102;28;1116;-49
2023/11/19 10:08:04;;;;;;;;;;;;;;;17.17;43.71;100307.22;5076647;28;1113;-46
2023/11/19 10:10:30;;;;;;;;;;;;;;;17.47;43.12;100305.28;5074902;28;1079;-47
2023/11/19 10:12:55;;;;;;;;;;;;;;;16.63;44.84;100319.16;5089322;28;1122;-43
2023/11/19 10:15:24;;;;;;;;;;;;;;;16.38;45.41;100316.31;5090905;28;891;-48
2023/11/19 10:17:50;;;;;;;;;;;;;;;16.82;44.46;100302.84;5076708;28;2585;-45
2023/11/19 10:20:16;;;;;;;;;;;;;;;17.27;43.22;100284.34;5090272;28;1074;-45
2023/11/19 10:22:41;;;;;;;;;;;;;;;16.57;44.86;100304.66;5088615;28;1138;-47
2023/11/19 10:25:27;;;;;;;;;;;;;;;16.23;45.87;100306.22;5090744;28;1037;-43
2023/11/19 10:27:53;;;;;;;;;;;;;;;17.16;43.70;100335.81;5095616;28;1806;-48
2023/11/19 10:30:21;;;;;;;;;;;;;;;17.20;43.41;100339.63;5096221;28;1017;-48
2023/11/19 10:33:05;;;;;;;;;;;;;;;16.55;44.80;100342.53;5079140;28;1396;-50
2023/11/19 10:35:34;;;;;;;;;;;;;;;16.20;45.61;100316.94;5086658;28;1030;-45
2023/11/19 10:38:01;;;;;;;;;;;;;;;16.89;44.46;100352.78;5092523;28;1914;-44
2023/11/19 10:40:42;;;;;;;;;;;;;;;17.68;42.34;100338.88;5096674;28;1053;-41
2023/11/19 10:43:07;;;;;;;;;;;;;;;16.70;44.40;100350.66;5095308;28;1042;-42
2023/11/19 10:45:33;;;;;;;;;;;;;;;16.31;45.51;100343.22;5085217;28;1033;-44
2023/11/19 10:47:59;;;;;;;;;;;;;;;17.01;43.99;100347.75;5092766;28;2472;-44
2023/11/19 10:50:25;;;;;;;;;;;;;;;17.33;43.03;100346.38;5093930;28;1105;-47
2023/11/19 10:52:51;;;;;;;;;;;;;;;16.62;44.65;100334.84;5089337;28;998;-44
2023/11/19 10:55:17;;;;;;;;;;;;;;;16.35;45.50;100347.03;5086522;28;1221;-45
2023/11/19 10:57:43;;;;;;;;;;;;;;;17.62;42.35;100353.78;5096771;28;1898;-47
2023/11/19 11:00:12;;;;;;;;;;;;;;;17.15;43.58;100347.09;5104404;28;1100;-45
2023/11/19 11:02:39;;;;;;;;;;;;;;;16.57;44.77;100345.84;5086639;28;1189;-44
2023/11/19 11:05:05;;;;;;;;;;;;;;;16.71;44.45;100360.56;5108535;28;1148;-44
2023/11/19 11:07:30;;;;;;;;;;;;;;;17.39;43.07;100347.97;5084337;28;1101;-41
2023/11/19 11:09:56;;;;;;;;;;;;;;;16.67;44.36;100347.69;5104124;28;1010;-45
2023/11/19 11:12:22;;;;;;;;;;;;;;;16.34;45.47;100345.41;5077733;28;1050;-48
2023/11/19 11:14:48;;;;;;;;;;;;;;;17.25;43.49;100328.59;5106939;28;1512;-43
2023/11/19 11:17:14;;;;;;;;;;;;;;;17.07;43.66;100348.53;5079285;28;1906;-46
2023/11/19 11:19:40;;;;;;;;;;;;;;;16.53;44.97;100353.81;5090615;28;1055;-45
2023/11/19 11:22:05;;;;;;;;;;;;;;;16.28;45.33;100360.25;5079365;28;1174;-43
2023/11/19 11:24:31;;;;;;;;;;;;;;;17.06;43.64;100372.44;5095875;28;1046;-47
2023/11/19 11:27:12;;;;;;;;;;;;;;;17.21;43.41;100378.94;5101413;28;1067;-45
2023/11/19 11:29:41;;;;;;;;;;;;;;;16.49;45.04;100385.66;5096374;28;1085;-42
2023/11/19 11:32:07;;;;;;;;;;;;;;;16.21;45.37;100401.69;5110686;28;1037;-44
2023/11/19 11:34:38;;;;;;;;;;;;;;;16.74;44.51;100408.59;5096500;28;1142;-47
2023/11/19 11:37:10;;;;;;;;;;;;;;;17.51;42.42;100423.72;5109372;28;1967;-49
2023/11/19 11:39:36;;;;;;;;;;;;;;;16.63;44.60;100426.22;5111974;28;843;-42
2023/11/19 11:42:17;;;;;;;;;;;;;;;16.32;45.48;100448.31;5116255;28;1092;-44
2023/11/19 11:44:57;;;;;;;;;;;;;;;17.36;43.04;100444.75;5102978;28;1172;-49
2023/11/19 11:47:23;;;;;;;;;;;;;;;17.12;43.38;100465.81;5114502;28;2322;-43
2023/11/19 11:49:48;;;;;;;;;;;;;;;16.51;44.75;100476.78;5101147;28;1138;-43
2023/11/19 11:52:15;;;;;;;;;;;;;;;16.25;45.49;100489.75;5090636;28;991;-43
2023/11/19 11:54:41;;;;;;;;;;;;;;;17.48;42.94;100488.34;5108490;28;1217;-48
2023/11/19 11:57:08;;;;;;;;;;;;;;;17.03;43.82;100491.13;5097790;28;1905;-45
2023/11/19 11:59:42;;;;;;;;;;;;;;;16.53;44.91;100503.94;5095920;28;971;-44
2023/11/19 12:02:08;;;;;;;;;;;;;;;16.20;45.72;100503.47;5109436;28;1069;-43
2023/11/19 12:04:37;;;;;;;;;;;;;;;17.02;43.69;100497.72;5107885;28;1002;-46
2023/11/19 12:07:03;;;;;;;;;;;;;;;17.27;43.23;100501.41;5110598;28;1051;-47
2023/11/19 12:09:29;;;;;;;;;;;;;;;16.57;44.55;100507.78;5115787;28;1124;-44
2023/11/19 12:12:13;;;;;;;;;;;;;;;16.49;44.96;100511.09;5096566;28;1069;-47
2023/11/19 12:14:57;;;;;;;;;;;;;;;17.12;43.57;100531.72;5101054;28;1085;-42
2023/11/19 12:17:44;;;;;;;;;;;;;;;16.43;44.87;100543.22;5117237;28;2305;-46
2023/11/19 12:20:11;;;;;;;;;;;;;;;16.74;44.42;100532.97;5101477;28;1067;-46
2023/11/19 12:22:40;;;;;;;;;;;;;;;17.58;42.57;100532.25;5119206;28;1104;-45
2023/11/19 12:25:06;;;;;;;;;;;;;;;16.71;44.40;100539.00;5100646;28;1029;-40
2023/11/19 12:27:33;;;;;;;;;;;;;;;16.34;45.17;100548.47;5115627;28;856;-42
2023/11/19 12:29:59;;;;;;;;;;;;;;;16.13;45.63;100566.88;5119170;28;1026;-44
2023/11/19 12:32:25;;;;;;;;;;;;;;;17.45;42.97;100560.41;5119371;28;1033;-45
2023/11/19 12:34:50;;;;;;;;;;;;;;;16.78;44.03;100566.19;5116327;28;1062;-45
2023/11/19 12:37:16;;;;;;;;;;;;;;;16.32;45.45;100561.63;5108586;28;1905;-41
2023/11/19 12:39:41;;;;;;;;;;;;;;;17.40;43.10;100547.50;5090066;28;1093;-44
2023/11/19 12:42:07;;;;;;;;;;;;;;;16.76;44.23;100551.94;5119018;28;1077;-43
2023/11/19 12:44:34;;;;;;;;;;;;;;;16.30;45.27;100572.06;5102490;28;1232;-43
2023/11/19 12:47:06;;;;;;;;;;;;;;;17.02;43.72;100563.63;5099076;28;1038;-43